23MI weather

Betsie River Airstrip
Thompsonville, Michigan, United States

Public forecast

Using degrees Fahrenheit for public forecast. Weather courtesy of forecast.io.

Closest aviation weather report (METAR) to Betsie River Airstrip

Closest report is Frankfort Dow Memorial Field, 13.7 nm (25.3 km) WNW. Retrieved 2019/10/17 22:35 UTC (0 seconds ago):

KFKS 172235Z AUTO 31005KT 10SM SCT045 09/02 A3000 RMK AO2 T00940024

Closest aviation forecast (TAF) to Betsie River Airstrip

Closest forecast is Cherry Capital Airport, 16.5 nm (30.6 km) NE. Retrieved 2019/10/17 18:33 UTC (4 hours ago):

TAF KTVC 171731Z 1718/1818 34011KT P6SM SCT025 BKN035 FM172000 33011KT P6SM BKN035 FM172300 34007KT P6SM BKN060 FM180200 35005KT P6SM SCT080